Scranton, North Carolina
Current Conditions -  °F | °C
As of 5:50 AM on Monday 22 Dec 2014 (Local Time) from K2DP Reporting Station
Broken Clouds Broken Clouds  
Wind Chill: 42°   Ceiling: 800
Heat Index: 48°   Visibility: 9mi
Dew Point: 48°   Wind: 16mph
Humidity: 100%   Direction: 50°NE
Pressure: 30.1"   Gusts: 24mph
Location:  35.5°N, 76.45°W
Report Text: K2DP 221050Z AUTO 05014G21KT 9SM BKN008 09/09 A3010 RMK AO2
Loading
Personal Weather Stations






























Interactive Weather Map New forecast layout! Learn more

10-Day Weather Forecast

Advertisements
Track Severe Weather on mobile